This is the latest recevied weather packets stored in our database for station/object K2CCS. If no packets are shown the sender has not sent any weather packets the latest 10 day(s).
| Time | Temp. | Humidity | Pressure | Rain* | Wind** | Luminosity | Snow |
|---|---|---|---|---|---|---|---|
| 1777509436 | 17.78° C | 60% | 1011.7 hPa | 0 mm | - | 0 W/m² | - |
| 1777509134 | 17.78° C | 60% | 1011.9 hPa | 0 mm | - | 0 W/m² | - |
| 1777508830 | 17.78° C | 60% | 1012.1 hPa | 0 mm | - | 0 W/m² | - |
| 1777508527 | 17.78° C | 60% | 1011.8 hPa | 0 mm | - | 0 W/m² | - |
| 1777508224 | 17.78° C | 59% | 1012.1 hPa | 0 mm | - | 0 W/m² | - |
| 1777505495 | 18.33° C | 58% | 1012 hPa | 0 mm | - | 2 W/m² | - |
| 1777497612 | 20.56° C | 54% | 1012.3 hPa | 0 mm | - | 101 W/m² | - |
| 1777496095 | 21.11° C | 53% | 1012.5 hPa | 0 mm | - | 106 W/m² | - |
| 1777493222 | 21.67° C | 51% | 1013.1 hPa | 0 mm | - | 309 W/m² | - |
| 1777492918 | 21.11° C | 53% | 1013.2 hPa | 0 mm | - | 226 W/m² | - |
| 1777492615 | 21.11° C | 52% | 1013.3 hPa | 0 mm | - | 278 W/m² | - |
| 1777489884 | 20.56° C | 53% | 1014.1 hPa | 0 mm | - | 267 W/m² | - |
| 1777489582 | 20.56° C | 53% | 1014.4 hPa | 0 mm | - | 382 W/m² | - |
| 1777488975 | 20.56° C | 55% | 1014.5 hPa | 0 mm | - | 259 W/m² | - |
| 1777488370 | 20° C | 55% | 1014.8 hPa | 0 mm | - | 140 W/m² | - |
| 1777485339 | 20° C | 54% | 1015.3 hPa | 0 mm | - | 215 W/m² | - |
| 1777482911 | 19.44° C | 55% | 1015.7 hPa | 0 mm | - | 384 W/m² | - |
| 1777482001 | 19.44° C | 54% | 1015.7 hPa | 0 mm | - | 367 W/m² | - |
| 1777480181 | 20° C | 50% | 1016.3 hPa | 0 mm | - | 476 W/m² | - |
| 1777478666 | 19.44° C | 52% | 1016.6 hPa | 0 mm | - | 584 W/m² | - |
| 1777477757 | 18.89° C | 52% | 1016.8 hPa | 0 mm | - | 767 W/m² | - |
| 1777477148 | 18.33° C | 54% | 1016.9 hPa | 0 mm | - | 661 W/m² | - |
| 1777476542 | 17.78° C | 55% | 1016.8 hPa | 0 mm | - | 543 W/m² | - |
| 1777476238 | 17.78° C | 55% | 1017 hPa | 0 mm | - | 751 W/m² | - |
| 1777475933 | 17.78° C | 54% | 1017.1 hPa | 0 mm | - | 505 W/m² | - |
* Rain latest hour (hover to see other rain measurements)
** Current wind speed in m/s (hover to see current wind gust speed)